Time;durP1;ratioP1;P1;durP2;ratioP2;P2;SDS_P1;SDS_P2;PMS_P1;PMS_P2;Temp;Humidity;BMP_temperature;BMP_pressure;BME280_temperature;BME280_humidity;BME280_pressure;Samples;Min_cycle;Max_cycle;Signal;HPM_P1;HPM_P2
2021/12/11 00:01:42;;;;;;;16.42;12.10;;;;;;;8.61;80.39;100158.04;1726399;82;21545;-67
2021/12/11 00:04:13;;;;;;;14.18;12.07;;;;;;;8.62;80.31;100161.52;1720530;82;21331;-68
2021/12/11 00:06:46;;;;;;;13.32;11.75;;;;;;;8.61;80.20;100161.99;1713325;83;20996;-68
2021/12/11 00:09:20;;;;;;;17.90;12.45;;;;;;;8.62;80.09;100158.40;1723699;82;21047;-67
2021/12/11 00:11:58;;;;;;;14.73;11.63;;;;;;;8.63;80.03;100173.23;1724279;82;20963;-67
2021/12/11 00:14:24;;;;;;;16.23;12.30;;;;;;;8.64;79.92;100174.08;1702684;82;22226;-67
2021/12/11 00:16:51;;;;;;;16.12;12.60;;;;;;;8.62;79.83;100166.30;1719907;82;20996;-67
2021/12/11 00:19:25;;;;;;;15.53;12.78;;;;;;;8.62;79.68;100169.41;1742879;82;20965;-67
2021/12/11 00:21:53;;;;;;;15.98;12.88;;;;;;;8.63;79.63;100181.62;1721696;82;21483;-67
2021/12/11 00:24:25;;;;;;;15.68;12.25;;;;;;;8.62;79.53;100180.78;1696731;82;21051;-67
2021/12/11 00:26:58;;;;;;;14.43;12.60;;;;;;;8.62;79.51;100164.14;1719946;81;21836;-67
2021/12/11 00:29:26;;;;;;;16.17;12.28;;;;;;;8.63;79.39;100161.88;1713397;82;21008;-68
2021/12/11 00:32:00;;;;;;;14.73;12.18;;;;;;;8.62;79.32;100164.98;1726938;82;21090;-68
2021/12/11 00:34:27;;;;;;;18.17;14.45;;;;;;;8.63;79.25;100175.87;1702664;82;20979;-67
2021/12/11 00:36:58;;;;;;;17.62;14.20;;;;;;;8.64;79.18;100188.56;1700570;82;20963;-67
2021/12/11 00:39:24;;;;;;;17.80;14.68;;;;;;;8.63;79.04;100180.30;1716974;82;21821;-67
2021/12/11 00:41:55;;;;;;;16.30;13.93;;;;;;;8.64;79.03;100178.03;1740556;81;20976;-68
2021/12/11 00:44:32;;;;;;;18.32;13.53;;;;;;;8.64;78.98;100177.55;1716509;81;21004;-67
2021/12/11 00:47:17;;;;;;;19.48;14.13;;;;;;;8.64;78.88;100165.70;1721469;82;21047;-67
2021/12/11 00:49:53;;;;;;;;;;;;;;;8.65;78.87;100168.69;1702368;83;20952;-67
2021/12/11 00:52:46;;;;;;;17.95;13.90;;;;;;;8.65;78.81;100164.75;1713553;83;21745;-67
2021/12/11 00:55:26;;;;;;;17.05;13.53;;;;;;;8.63;78.80;100152.66;1716014;83;21061;-68
2021/12/11 00:58:19;;;;;;;16.93;13.88;;;;;;;8.63;78.72;100148.70;1749167;81;21030;-67
2021/12/11 01:00:54;;;;;;;18.12;14.33;;;;;;;8.63;78.71;100142.13;1702725;82;20972;-67
2021/12/11 01:03:42;;;;;;;17.65;14.40;;;;;;;8.64;78.65;100142.01;1726457;83;21019;-67
2021/12/11 01:06:22;;;;;;;15.55;13.30;;;;;;;8.64;78.59;100143.32;1743832;81;22546;-68
2021/12/11 01:08:57;;;;;;;18.82;15.60;;;;;;;8.64;78.57;100142.48;1737445;81;20999;-68
2021/12/11 01:11:42;;;;;;;21.62;15.72;;;;;;;8.63;78.49;100140.81;1726604;83;21004;-67
2021/12/11 01:14:26;;;;;;;18.60;14.60;;;;;;;8.60;78.44;100136.63;1726635;83;21578;-67
2021/12/11 01:17:02;;;;;;;16.27;14.15;;;;;;;8.58;78.43;100134.55;1734410;81;21007;-66
2021/12/11 01:19:29;;;;;;;17.82;13.65;;;;;;;8.55;78.46;100141.38;1719343;81;21783;-66
2021/12/11 01:21:58;;;;;;;16.27;14.47;;;;;;;8.52;78.46;100145.08;1725716;83;20955;-66
2021/12/11 01:24:43;;;;;;;15.80;13.70;;;;;;;8.50;78.35;100143.53;1736718;81;20963;-66
2021/12/11 01:27:18;;;;;;;15.05;12.88;;;;;;;8.46;78.23;100149.48;1755427;81;21132;-66
2021/12/11 01:29:46;;;;;;;15.35;12.35;;;;;;;8.39;78.17;100157.45;1733078;81;21026;-67
2021/12/11 01:32:14;;;;;;;15.18;11.97;;;;;;;8.35;78.19;100153.38;1743707;81;21860;-67
2021/12/11 01:34:41;;;;;;;15.68;12.40;;;;;;;8.31;78.24;100151.91;1726847;81;21011;-68
2021/12/11 01:37:08;;;;;;;14.10;12.60;;;;;;;8.27;78.25;100160.48;1718980;81;21008;-68
2021/12/11 01:39:37;;;;;;;14.80;11.90;;;;;;;8.22;78.30;100161.31;1756318;81;21509;-67
2021/12/11 01:42:14;;;;;;;14.78;11.60;;;;;;;8.18;78.33;100160.31;1756247;81;20948;-67
2021/12/11 01:44:41;;;;;;;16.65;13.10;;;;;;;8.13;78.37;100166.41;1749444;81;21831;-67
2021/12/11 01:47:14;;;;;;;13.68;11.83;;;;;;;8.08;78.42;100166.72;1731836;81;20956;-67
2021/12/11 01:49:43;;;;;;;15.90;11.95;;;;;;;8.01;78.42;100172.08;1746292;81;21015;-68
2021/12/11 01:52:15;;;;;;;15.15;11.97;;;;;;;7.92;78.51;100170.95;1726339;83;20972;-67
2021/12/11 01:54:44;;;;;;;16.02;12.47;;;;;;;7.88;78.64;100169.95;1726712;83;21028;-67
2021/12/11 01:57:19;;;;;;;17.17;13.03;;;;;;;7.82;78.75;100167.30;1753813;81;21865;-67
2021/12/11 01:59:47;;;;;;;16.50;12.65;;;;;;;7.79;78.82;100171.91;1745473;81;20964;-67
2021/12/11 02:02:25;;;;;;;16.20;12.53;;;;;;;7.76;78.89;100171.67;1729746;81;20984;-68
2021/12/11 02:07:34;;;;;;;17.95;12.35;;;;;;;7.69;79.01;100170.41;1718557;82;21027;-67
2021/12/11 02:10:01;;;;;;;17.02;13.43;;;;;;;7.67;79.09;100164.42;1709174;82;21832;-67
2021/12/11 02:12:37;;;;;;;17.35;12.85;;;;;;;7.63;79.12;100155.09;1715789;82;21020;-67
2021/12/11 02:15:10;;;;;;;16.82;12.25;;;;;;;7.61;79.17;100158.28;1720128;82;21491;-67
2021/12/11 02:17:56;;;;;;;18.62;13.43;;;;;;;7.57;79.15;100156.35;1741397;82;21023;-67
2021/12/11 02:20:31;;;;;;;21.12;13.78;;;;;;;7.54;79.12;100164.94;1708743;81;20995;-67
2021/12/11 02:22:58;;;;;;;21.65;14.07;;;;;;;7.48;79.22;100161.41;1699902;82;21941;-67
2021/12/11 02:25:29;;;;;;;16.07;13.38;;;;;;;7.45;79.33;100170.36;1714181;81;21040;-67
2021/12/11 02:28:08;;;;;;;19.40;13.60;;;;;;;7.43;79.52;100170.47;1698848;82;20970;-67
2021/12/11 02:30:52;;;;;;;15.93;11.93;;;;;;;7.44;79.66;100163.42;1695574;82;20975;-67
2021/12/11 02:33:26;;;;;;;17.45;13.18;;;;;;;7.46;79.79;100174.66;1643166;84;27429;-67
2021/12/11 02:36:01;;;;;;;16.40;13.45;;;;;;;7.46;79.84;100168.09;1670990;84;21865;-67
2021/12/11 02:38:43;;;;;;;16.87;13.38;;;;;;;7.46;79.86;100167.62;1730465;82;20952;-67
2021/12/11 02:41:25;;;;;;;19.90;13.18;;;;;;;7.44;79.90;100167.36;1663332;84;21099;-67
2021/12/11 02:44:12;;;;;;;18.27;14.23;;;;;;;7.43;79.97;100162.59;1697755;83;21003;-68
2021/12/11 02:47:09;;;;;;;17.82;13.45;;;;;;;7.42;80.03;100159.56;1713029;82;21074;-67
2021/12/11 02:49:55;;;;;;;18.35;13.68;;;;;;;7.41;80.05;100169.71;1737092;82;21700;-67
2021/12/11 02:52:30;;;;;;;18.10;14.15;;;;;;;7.38;80.04;100158.11;1711812;82;20996;-67
2021/12/11 02:55:15;;;;;;;16.42;13.75;;;;;;;7.33;80.01;100161.52;1725666;82;21053;-67
2021/12/11 02:57:51;;;;;;;17.40;13.05;;;;;;;7.29;79.99;100161.38;1696906;82;21016;-67
2021/12/11 03:00:35;;;;;;;19.27;14.70;;;;;;;7.24;80.04;100160.87;1737956;82;20996;-67
2021/12/11 03:03:05;;;;;;;17.80;12.95;;;;;;;7.17;80.06;100155.66;1695373;82;21852;-67
2021/12/11 03:05:41;;;;;;;19.77;14.70;;;;;;;7.14;80.15;100156.72;1711072;82;20988;-67
2021/12/11 03:08:06;;;;;;;19.27;14.07;;;;;;;7.11;80.15;100158.69;1724656;82;21396;-66
2021/12/11 03:10:33;;;;;;;19.25;14.20;;;;;;;7.07;80.14;100164.64;1739877;82;21483;-66
2021/12/11 03:12:59;;;;;;;20.35;14.30;;;;;;;7.03;80.15;100154.44;1725304;82;21071;-67
2021/12/11 03:15:26;;;;;;;19.35;14.35;;;;;;;6.99;80.18;100158.23;1721417;81;21847;-67
2021/12/11 03:17:53;;;;;;;21.70;14.87;;;;;;;6.94;80.24;100150.64;1720136;82;21048;-66
2021/12/11 03:20:21;;;;;;;23.18;15.65;;;;;;;6.92;80.34;100155.16;1736511;82;20948;-66
2021/12/11 03:22:48;;;;;;;23.45;15.78;;;;;;;6.91;80.37;100156.59;1736944;82;20960;-67
2021/12/11 03:25:20;;;;;;;19.10;14.50;;;;;;;6.88;80.41;100160.27;1690307;82;21117;-66
2021/12/11 03:27:47;;;;;;;20.27;14.73;;;;;;;6.88;80.46;100155.86;1693730;82;21841;-66
2021/12/11 03:30:21;;;;;;;21.45;15.63;;;;;;;6.86;80.46;100155.13;1691025;84;20955;-66
2021/12/11 03:32:53;;;;;;;21.87;15.83;;;;;;;6.84;80.49;100157.47;1710368;82;28994;-66
2021/12/11 03:35:19;;;;;;;20.30;14.98;;;;;;;6.80;80.54;100148.97;1730018;82;21029;-66
2021/12/11 03:37:46;;;;;;;20.12;14.38;;;;;;;6.79;80.59;100149.08;1697744;82;20959;-66
2021/12/11 03:40:13;;;;;;;17.25;13.55;;;;;;;6.79;80.67;100147.76;1694981;84;21786;-67
2021/12/11 03:42:42;;;;;;;18.87;14.68;;;;;;;6.79;80.76;100141.20;1697515;82;21042;-67
2021/12/11 03:45:17;;;;;;;21.00;14.10;;;;;;;6.79;80.82;100146.45;1716776;82;20981;-67
2021/12/11 03:47:47;;;;;;;19.52;14.98;;;;;;;6.78;80.90;100143.45;1710652;83;21494;-67
2021/12/11 03:50:16;;;;;;;18.37;15.10;;;;;;;6.79;80.98;100135.95;1719236;82;20956;-67
2021/12/11 03:52:43;;;;;;;20.35;15.13;;;;;;;6.79;81.00;100128.91;1714878;83;22631;-67
2021/12/11 03:55:11;;;;;;;19.52;15.32;;;;;;;6.81;80.98;100133.58;1712451;81;20999;-66
2021/12/11 03:57:38;;;;;;;23.75;16.65;;;;;;;6.82;81.02;100135.73;1710694;82;20956;-66
2021/12/11 04:00:10;;;;;;;19.27;14.30;;;;;;;6.81;81.02;100133.58;1700201;82;21066;-66
2021/12/11 04:02:39;;;;;;;21.87;15.75;;;;;;;6.81;81.03;100144.08;1700071;82;20956;-66
2021/12/11 04:05:07;;;;;;;22.02;15.98;;;;;;;6.80;81.05;100137.62;1702011;82;21832;-66
2021/12/11 04:07:42;;;;;;;20.37;15.45;;;;;;;6.79;81.03;100134.64;1674066;84;21006;-68
2021/12/11 04:10:10;;;;;;;24.45;16.52;;;;;;;6.80;81.05;100145.03;1684035;82;21012;-66
2021/12/11 04:12:38;;;;;;;19.55;14.78;;;;;;;6.80;81.06;100131.91;1665512;86;21455;-66
2021/12/11 04:15:07;;;;;;;21.65;14.73;;;;;;;6.80;81.09;100121.87;1687075;82;21063;-66
2021/12/11 04:17:34;;;;;;;19.20;15.63;;;;;;;6.80;81.08;100124.50;1683282;85;21800;-66
2021/12/11 04:20:06;;;;;;;22.10;15.30;;;;;;;6.77;81.07;100125.56;1665073;84;21039;-66
2021/12/11 04:22:34;;;;;;;19.20;14.65;;;;;;;6.77;81.08;100103.72;1696286;83;21038;-66
2021/12/11 04:25:05;;;;;;;18.45;14.83;;;;;;;6.77;81.07;100100.63;1744937;82;21019;-70
2021/12/11 04:27:33;;;;;;;19.92;14.68;;;;;;;6.77;81.11;100094.06;1735168;82;21043;-67
2021/12/11 04:30:03;;;;;;;19.45;15.60;;;;;;;6.77;81.07;100095.38;1664972;84;21764;-67
2021/12/11 04:32:31;;;;;;;17.82;13.88;;;;;;;6.75;81.09;100093.77;1734963;82;21454;-67
2021/12/11 04:34:56;;;;;;;21.62;15.30;;;;;;;6.74;81.14;100103.44;1722751;82;21442;-67
2021/12/11 04:37:25;;;;;;;22.20;15.43;;;;;;;6.72;81.14;100097.92;1689825;84;21008;-67
2021/12/11 04:40:02;;;;;;;19.40;15.85;;;;;;;6.72;81.14;100094.83;1726188;82;21048;-67
2021/12/11 04:42:46;;;;;;;20.65;15.55;;;;;;;6.71;81.16;100101.03;1676884;84;22524;-67
2021/12/11 04:45:01;;;;;;;19.30;15.13;;;;;;;6.72;81.21;100113.20;1655365;84;20941;-67
2021/12/11 04:47:42;;;;;;;20.65;15.13;;;;;;;6.73;81.23;100108.79;1686240;83;20946;-67
2021/12/11 04:50:13;;;;;;;20.45;15.10;;;;;;;6.74;81.25;100113.09;1657955;84;20992;-67
2021/12/11 04:52:53;;;;;;;18.23;14.18;;;;;;;6.75;81.27;100112.98;1662388;85;20964;-67
2021/12/11 04:55:39;;;;;;;19.35;14.68;;;;;;;6.78;81.27;100106.71;1677626;85;21823;-67
2021/12/11 04:58:26;;;;;;;18.32;14.50;;;;;;;6.79;81.24;100118.41;1642094;85;21384;-67
2021/12/11 05:01:24;;;;;;;20.02;15.50;;;;;;;6.80;81.17;100114.84;1712459;82;20999;-67
2021/12/11 05:11:42;;;;;;;28.42;19.87;;;;;;;6.80;81.15;100119.25;1710927;83;20952;-66
2021/12/11 05:14:09;;;;;;;25.92;20.10;;;;;;;6.80;81.14;100109.59;1711773;82;21494;-67
2021/12/11 05:16:37;;;;;;;27.05;20.08;;;;;;;6.80;81.15;100113.53;1732009;82;21575;-66
2021/12/11 05:19:04;;;;;;;28.90;21.65;;;;;;;6.78;81.12;100107.55;1719093;82;21519;-67
2021/12/11 05:21:33;;;;;;;28.17;21.62;;;;;;;6.77;81.09;100108.97;1711278;83;22681;-66
2021/12/11 05:24:00;;;;;;;27.30;21.30;;;;;;;6.76;81.14;100096.31;1710873;82;20952;-67
2021/12/11 05:26:27;;;;;;;26.20;20.55;;;;;;;6.74;81.11;100094.25;1731728;82;20992;-67
2021/12/11 05:28:53;;;;;;;28.00;21.20;;;;;;;6.74;81.13;100092.93;1711181;83;21479;-67
2021/12/11 05:31:20;;;;;;;24.32;19.35;;;;;;;6.75;81.12;100085.89;1725548;81;20948;-67
2021/12/11 05:33:46;;;;;;;25.27;20.57;;;;;;;6.75;81.11;100088.05;1719031;82;21795;-68
2021/12/11 05:36:15;;;;;;;26.07;20.20;;;;;;;6.74;81.16;100094.72;1717818;83;21111;-69
2021/12/11 05:38:43;;;;;;;24.72;20.02;;;;;;;6.74;81.21;100095.56;1710971;83;21516;-70
2021/12/11 05:41:12;;;;;;;27.07;21.07;;;;;;;6.74;81.22;100095.56;1710890;83;21010;-70
2021/12/11 05:43:38;;;;;;;25.23;19.25;;;;;;;6.74;81.17;100100.81;1708380;83;21005;-69
2021/12/11 05:46:06;;;;;;;27.42;20.70;;;;;;;6.74;81.11;100104.74;1735143;82;22170;-69
2021/12/11 05:48:32;;;;;;;24.67;19.40;;;;;;;6.71;81.04;100094.94;1711391;82;21008;-69
2021/12/11 05:51:01;;;;;;;25.40;20.02;;;;;;;6.70;81.04;100105.91;1710432;84;20964;-68
2021/12/11 05:53:31;;;;;;;26.20;20.82;;;;;;;6.69;81.04;100116.05;1700020;83;21004;-68
2021/12/11 05:55:58;;;;;;;27.87;20.23;;;;;;;6.68;81.00;100101.72;1723205;81;21054;-68
2021/12/11 05:58:45;;;;;;;24.20;19.23;;;;;;;6.68;81.01;100104.34;1708135;83;22210;-68
2021/12/11 06:00:53;;;;;;;24.07;19.55;;;;;;;6.66;80.93;100104.45;1711816;83;21015;-68
2021/12/11 06:03:20;;;;;;;25.32;19.48;;;;;;;6.66;80.89;100086.08;1724586;82;21403;-67
2021/12/11 06:05:47;;;;;;;24.18;19.32;;;;;;;6.65;80.81;100093.55;1715482;81;20964;-69
2021/12/11 06:08:13;;;;;;;24.67;20.30;;;;;;;6.63;80.73;100110.36;1722229;82;21039;-68
2021/12/11 06:10:40;;;;;;;23.87;19.42;;;;;;;6.62;80.69;100103.43;1685205;82;22159;-69
2021/12/11 06:13:08;;;;;;;23.83;17.73;;;;;;;6.59;80.65;100092.67;1687065;82;21433;-68
2021/12/11 06:15:38;;;;;;;27.05;19.10;;;;;;;6.57;80.63;100091.47;1708861;82;20968;-68
2021/12/11 06:18:07;;;;;;;22.50;18.57;;;;;;;6.54;80.66;100089.50;1683633;83;20970;-67
2021/12/11 06:20:33;;;;;;;24.50;19.32;;;;;;;6.53;80.69;100094.39;1713059;82;21004;-68
2021/12/11 06:23:00;;;;;;;24.82;18.87;;;;;;;6.52;80.67;100091.40;1707196;82;22493;-67
2021/12/11 06:25:29;;;;;;;24.80;18.52;;;;;;;6.51;80.64;100086.62;1731654;82;20977;-67
2021/12/11 06:27:56;;;;;;;25.97;19.75;;;;;;;6.51;80.58;100091.87;1699555;82;21008;-69
2021/12/11 06:30:23;;;;;;;22.17;17.95;;;;;;;6.49;80.60;100088.99;1685767;82;21427;-69
2021/12/11 06:32:51;;;;;;;25.40;18.37;;;;;;;6.48;80.58;100084.69;1705147;82;21128;-68
2021/12/11 06:35:48;;;;;;;21.17;17.42;;;;;;;6.47;80.58;100087.78;1712055;82;22410;-68
2021/12/11 06:38:18;;;;;;;24.00;18.12;;;;;;;6.46;80.54;100100.98;1706778;82;21065;-69
2021/12/11 06:40:45;;;;;;;24.95;17.35;;;;;;;6.45;80.50;100084.87;1726783;82;21055;-67
2021/12/11 06:43:11;;;;;;;21.65;17.27;;;;;;;6.43;80.44;100080.20;1687503;82;21032;-68
2021/12/11 06:45:37;;;;;;;24.47;18.05;;;;;;;6.43;80.41;100092.02;1715914;82;20977;-68
2021/12/11 06:48:06;;;;;;;21.68;17.25;;;;;;;6.39;80.37;100087.45;1713451;82;21833;-68
2021/12/11 06:50:32;;;;;;;25.10;17.10;;;;;;;6.39;80.39;100075.65;1706243;83;20948;-69
2021/12/11 06:53:00;;;;;;;22.00;16.45;;;;;;;6.39;80.40;100087.45;1685014;84;20971;-69
2021/12/11 06:55:26;;;;;;;23.52;16.95;;;;;;;6.37;80.41;100091.97;1661850;82;21475;-69
2021/12/11 06:57:53;;;;;;;23.15;16.97;;;;;;;6.36;80.41;100073.20;1707872;83;21019;-69
2021/12/11 07:00:20;;;;;;;21.12;17.37;;;;;;;6.34;80.46;100085.59;1709063;83;21819;-69
2021/12/11 07:02:46;;;;;;;22.17;16.37;;;;;;;6.31;80.50;100086.64;1707131;83;21381;-72
2021/12/11 07:05:13;;;;;;;26.02;16.77;;;;;;;6.29;80.47;100086.38;1705076;82;21436;-72
2021/12/11 07:07:41;;;;;;;23.22;16.93;;;;;;;6.27;80.48;100089.11;1697076;83;20961;-72
2021/12/11 07:10:13;;;;;;;23.38;16.90;;;;;;;6.27;80.48;100079.06;1702018;82;21463;-72
2021/12/11 07:12:39;;;;;;;22.10;17.23;;;;;;;6.27;80.49;100090.42;1696523;82;21823;-72
2021/12/11 07:15:07;;;;;;;23.75;17.62;;;;;;;6.28;80.48;100087.33;1706565;83;21056;-71
2021/12/11 07:17:34;;;;;;;22.30;16.05;;;;;;;6.30;80.43;100082.81;1708451;82;21124;-72
2021/12/11 07:20:04;;;;;;;22.05;16.73;;;;;;;6.27;80.25;100077.31;1700508;83;21049;-72
2021/12/11 07:22:31;;;;;;;21.25;16.05;;;;;;;6.25;80.23;100069.99;1697133;83;20981;-73
2021/12/11 07:25:03;;;;;;;23.60;17.23;;;;;;;6.26;80.26;100081.32;1714317;82;22190;-74
2021/12/11 07:27:29;;;;;;;21.30;16.80;;;;;;;6.24;80.21;100098.47;1731680;82;21035;-73
2021/12/11 07:29:56;;;;;;;20.43;16.45;;;;;;;6.23;80.24;100090.71;1720725;82;21301;-71
2021/12/11 07:32:23;;;;;;;21.52;15.65;;;;;;;6.23;80.22;100086.30;1711288;82;21028;-73
2021/12/11 07:34:50;;;;;;;20.43;16.05;;;;;;;6.24;80.19;100096.33;1709961;82;21615;-72
2021/12/11 07:37:16;;;;;;;22.58;16.48;;;;;;;6.23;80.15;100091.55;1707523;82;22183;-72
2021/12/11 07:39:42;;;;;;;22.02;15.95;;;;;;;6.24;80.08;100092.39;1717492;82;21012;-70
2021/12/11 07:42:09;;;;;;;22.35;16.07;;;;;;;6.23;80.08;100084.16;1706932;82;21117;-72
2021/12/11 07:44:35;;;;;;;23.80;17.10;;;;;;;6.21;80.02;100081.64;1721784;82;21056;-71
2021/12/11 07:47:05;;;;;;;21.52;15.40;;;;;;;6.20;79.96;100093.08;1739268;82;21047;-71
2021/12/11 07:49:32;;;;;;;19.90;15.28;;;;;;;6.21;79.93;100093.91;1712749;82;21728;-71
2021/12/11 07:51:58;;;;;;;19.92;15.63;;;;;;;6.21;79.87;100082.11;1688811;82;21019;-71
2021/12/11 07:54:24;;;;;;;21.10;15.85;;;;;;;6.21;79.86;100085.58;1718635;82;21020;-72
2021/12/11 07:56:53;;;;;;;19.10;15.45;;;;;;;6.21;79.77;100088.67;1732060;82;21078;-73
2021/12/11 07:59:19;;;;;;;20.32;14.65;;;;;;;6.19;79.74;100107.12;1720632;82;21035;-69
2021/12/11 08:01:48;;;;;;;19.95;14.35;;;;;;;6.19;79.69;100101.05;1711952;82;22426;-71
2021/12/11 08:04:14;;;;;;;20.43;13.70;;;;;;;6.18;79.68;100112.01;1690952;82;21094;-70
2021/12/11 08:06:43;;;;;;;20.80;14.65;;;;;;;6.18;79.64;100120.34;1702005;82;20959;-70
2021/12/11 08:09:15;;;;;;;20.90;14.83;;;;;;;6.16;79.58;100125.67;1723589;82;21063;-71
2021/12/11 08:11:41;;;;;;;18.52;14.10;;;;;;;6.15;79.71;100123.98;1695090;82;21566;-69
2021/12/11 08:14:07;;;;;;;18.30;13.65;;;;;;;6.15;79.83;100120.53;1705856;83;21766;-69
2021/12/11 08:16:44;;;;;;;20.27;14.55;;;;;;;6.11;79.93;100124.30;1706553;84;21020;-71
2021/12/11 08:19:06;;;;;;;18.87;14.20;;;;;;;6.07;80.07;100124.11;1724009;82;21007;-68
2021/12/11 08:21:32;;;;;;;19.92;14.60;;;;;;;6.03;80.30;100122.17;1728129;82;21012;-69
2021/12/11 08:24:04;;;;;;;22.93;15.75;;;;;;;6.01;80.40;100131.45;1706976;83;22080;-69
2021/12/11 08:26:27;;;;;;;23.95;16.32;;;;;;;6.00;80.52;100129.77;1706645;83;21813;-69
2021/12/11 08:28:53;;;;;;;25.00;18.35;;;;;;;5.98;80.70;100125.55;1706706;84;21450;-70
2021/12/11 08:31:20;;;;;;;23.42;18.00;;;;;;;5.94;80.98;100121.45;1707555;82;21091;-69
2021/12/11 08:33:46;;;;;;;22.70;17.15;;;;;;;5.91;81.13;100109.86;1706869;84;21023;-69
2021/12/11 08:36:13;;;;;;;22.77;15.72;;;;;;;5.89;81.35;100107.78;1707180;84;21138;-69
2021/12/11 08:38:41;;;;;;;24.15;16.12;;;;;;;5.87;81.56;100109.16;1708058;82;21708;-69
2021/12/11 08:41:11;;;;;;;20.32;15.55;;;;;;;5.86;81.76;100105.33;1712833;82;21529;-69
2021/12/11 08:43:37;;;;;;;20.82;14.70;;;;;;;5.84;81.89;100102.81;1712701;81;21021;-71
2021/12/11 08:46:11;;;;;;;22.85;15.32;;;;;;;5.82;82.05;100111.25;1700998;84;21048;-70
2021/12/11 08:48:40;;;;;;;21.83;15.20;;;;;;;5.81;82.20;100118.75;1701670;83;21059;-70
2021/12/11 08:51:18;;;;;;;21.52;15.20;;;;;;;5.79;82.32;100111.90;1707767;82;21794;-70
2021/12/11 08:53:44;;;;;;;20.00;14.00;;;;;;;5.75;82.40;100102.09;1707310;83;21026;-70
2021/12/11 08:56:12;;;;;;;23.92;16.15;;;;;;;5.77;82.53;100107.23;1708278;82;21062;-69
2021/12/11 08:58:42;;;;;;;21.35;15.58;;;;;;;5.75;82.64;100108.17;1706888;84;21047;-69
2021/12/11 09:01:24;;;;;;;18.80;14.00;;;;;;;5.74;82.74;100107.80;1707532;82;21031;-69
2021/12/11 09:03:56;;;;;;;20.35;14.58;;;;;;;5.74;82.81;100118.28;1730066;82;22892;-68
2021/12/11 09:06:34;;;;;;;21.77;14.38;;;;;;;5.72;82.97;100099.20;1741369;81;21007;-71
2021/12/11 09:09:18;;;;;;;20.95;15.18;;;;;;;5.72;83.10;100114.92;1741167;82;21035;-69
2021/12/11 09:11:51;;;;;;;20.92;15.95;;;;;;;5.71;83.20;100106.70;1691301;82;21099;-69
2021/12/11 09:14:32;;;;;;;24.00;14.73;;;;;;;5.72;83.29;100103.61;1707835;83;21039;-70
2021/12/11 09:17:15;;;;;;;21.45;14.60;;;;;;;5.71;83.41;100113.25;1616012;85;21864;-69
2021/12/11 09:19:48;;;;;;;20.90;13.98;;;;;;;5.70;83.50;100123.36;1676844;85;21108;-71
2021/12/11 09:22:22;;;;;;;20.10;14.05;;;;;;;5.70;83.61;100125.98;1693984;82;20959;-70
2021/12/11 09:25:04;;;;;;;19.10;13.83;;;;;;;5.70;83.61;100111.57;1698570;83;21075;-71
2021/12/11 09:27:41;;;;;;;19.85;14.50;;;;;;;5.71;83.74;100125.52;1694139;83;21095;-70
2021/12/11 09:30:18;;;;;;;20.23;13.40;;;;;;;5.71;83.80;100117.66;1709654;82;22235;-69
2021/12/11 09:32:53;;;;;;;20.00;14.25;;;;;;;5.73;83.85;100130.19;1709382;82;21009;-71
2021/12/11 09:35:43;;;;;;;18.32;13.88;;;;;;;5.74;83.91;100133.17;1681855;85;21079;-71
2021/12/11 09:38:22;;;;;;;22.62;14.55;;;;;;;5.74;84.04;100114.83;1681643;84;21032;-70
2021/12/11 09:40:52;;;;;;;22.32;14.00;;;;;;;5.80;84.12;100123.62;1681704;84;21083;-69
2021/12/11 09:43:44;;;;;;;22.02;14.75;;;;;;;5.86;84.20;100126.30;1661240;86;21897;-68
2021/12/11 09:46:13;;;;;;;20.23;14.15;;;;;;;5.90;84.26;100133.92;1715086;82;21027;-68
2021/12/11 09:48:40;;;;;;;17.00;12.45;;;;;;;5.96;84.24;100129.58;1715724;83;21082;-68
2021/12/11 09:51:12;;;;;;;18.10;13.50;;;;;;;6.02;84.30;100125.73;1719102;82;21016;-68
2021/12/11 09:53:43;;;;;;;19.62;13.62;;;;;;;6.07;84.24;100135.91;1714655;83;21035;-68
2021/12/11 09:56:17;;;;;;;17.55;12.75;;;;;;;6.09;84.13;100143.23;1713745;83;21824;-69
2021/12/11 09:58:45;;;;;;;19.37;12.58;;;;;;;6.08;83.98;100137.15;1714278;82;21019;-70
2021/12/11 10:01:19;;;;;;;19.40;12.80;;;;;;;6.08;83.85;100129.28;1714661;82;21046;-71
2021/12/11 10:03:57;;;;;;;18.32;12.68;;;;;;;6.06;83.74;100139.00;1715626;82;21620;-71
2021/12/11 10:06:50;;;;;;;17.73;12.88;;;;;;;6.05;83.71;100131.23;1719223;83;21409;-71
2021/12/11 10:09:18;;;;;;;17.12;12.75;;;;;;;6.05;83.71;100132.55;1725888;81;39981;-73
2021/12/11 10:12:02;;;;;;;19.17;12.43;;;;;;;6.03;83.66;100139.20;1739947;81;21067;-72
2021/12/11 10:14:35;;;;;;;17.35;12.00;;;;;;;6.02;83.65;100140.99;1768456;81;21009;-70
2021/12/11 10:17:08;;;;;;;16.77;11.97;;;;;;;5.99;83.59;100146.44;1710803;83;21524;-73
2021/12/11 10:19:36;;;;;;;17.80;11.40;;;;;;;5.97;83.60;100144.83;1729151;81;21058;-73
2021/12/11 10:22:16;;;;;;;16.20;11.50;;;;;;;5.93;83.63;100148.60;1730100;81;22738;-71
2021/12/11 10:24:43;;;;;;;20.85;11.45;;;;;;;5.90;83.67;100142.22;1728458;82;21484;-70
2021/12/11 10:27:12;;;;;;;30.68;13.20;;;;;;;5.90;83.71;100139.61;1703430;84;21089;-70
2021/12/11 10:29:41;;;;;;;16.73;10.82;;;;;;;5.88;83.76;100143.60;1703604;84;21029;-69
2021/12/11 10:32:12;;;;;;;17.30;11.22;;;;;;;5.89;83.79;100137.92;1717811;81;21015;-69
2021/12/11 10:34:40;;;;;;;17.45;11.65;;;;;;;5.89;83.77;100146.63;1736318;81;21807;-68
2021/12/11 10:37:17;;;;;;;21.27;13.28;;;;;;;5.88;83.83;100148.01;1733243;81;21094;-68
2021/12/11 10:39:48;;;;;;;18.27;13.22;;;;;;;5.89;83.90;100149.72;1732767;82;21079;-69
2021/12/11 10:42:15;;;;;;;17.12;12.07;;;;;;;5.88;83.92;100150.16;1719008;81;21030;-67
2021/12/11 10:44:47;;;;;;;16.35;11.85;;;;;;;5.90;84.01;100160.57;1729231;82;21046;-67
2021/12/11 10:47:20;;;;;;;17.55;13.03;;;;;;;5.91;84.06;100150.48;1739156;81;21831;-69
2021/12/11 10:49:48;;;;;;;18.48;13.50;;;;;;;5.94;84.13;100156.84;1744813;81;20963;-67
2021/12/11 10:52:26;;;;;;;19.90;14.73;;;;;;;5.97;84.27;100157.47;1729131;82;20991;-67
2021/12/11 10:54:54;;;;;;;20.43;13.75;;;;;;;6.02;84.35;100158.50;1728557;81;21019;-67
2021/12/11 10:57:21;;;;;;;22.95;14.98;;;;;;;6.08;84.52;100158.56;1733658;82;21111;-67
2021/12/11 10:59:52;;;;;;;19.37;14.73;;;;;;;6.12;84.61;100151.73;1737273;81;22672;-67
2021/12/11 11:02:26;;;;;;;22.82;16.02;;;;;;;6.18;84.62;100151.81;1767187;81;20956;-67
2021/12/11 11:05:03;;;;;;;19.70;15.35;;;;;;;6.22;84.68;100146.73;1767596;81;21003;-67
2021/12/11 11:07:30;;;;;;;21.02;15.78;;;;;;;6.26;84.67;100145.58;1750146;81;21007;-67
2021/12/11 11:09:59;;;;;;;22.75;17.27;;;;;;;6.28;84.70;100148.49;1739983;81;21549;-67
2021/12/11 11:12:27;;;;;;;23.98;17.62;;;;;;;6.33;84.70;100147.34;1701935;82;21892;-67
2021/12/11 11:14:55;;;;;;;33.20;25.48;;;;;;;6.36;84.73;100149.75;1695323;84;21367;-67
2021/12/11 11:17:26;;;;;;;29.07;22.25;;;;;;;6.40;84.71;100147.31;1718707;82;21055;-67
2021/12/11 11:19:54;;;;;;;31.35;23.40;;;;;;;6.41;84.72;100134.09;1711494;82;20984;-67
2021/12/11 11:22:28;;;;;;;32.75;21.65;;;;;;;6.42;84.76;100143.64;1710497;83;21435;-68
2021/12/11 11:25:01;;;;;;;32.42;21.35;;;;;;;6.47;84.76;100142.05;1703556;84;22700;-67
2021/12/11 11:27:28;;;;;;;30.82;20.37;;;;;;;6.49;84.75;100141.47;1705510;82;21034;-66
2021/12/11 11:29:54;;;;;;;30.40;21.15;;;;;;;6.50;84.75;100137.89;1749651;82;21473;-67
2021/12/11 11:32:31;;;;;;;29.25;21.33;;;;;;;6.51;84.75;100143.52;1722386;82;21470;-67
2021/12/11 11:34:53;;;;;;;29.47;19.70;;;;;;;6.51;84.75;100140.89;1710209;83;21064;-67
2021/12/11 11:37:21;;;;;;;31.17;22.07;;;;;;;6.52;84.82;100151.27;1709649;83;21039;-68
2021/12/11 11:39:48;;;;;;;30.15;21.35;;;;;;;6.54;84.87;100146.76;1709953;82;20949;-69
2021/12/11 11:42:19;;;;;;;32.45;21.50;;;;;;;6.56;84.89;100146.66;1691811;83;21011;-68
2021/12/11 11:44:47;;;;;;;31.48;23.70;;;;;;;6.58;84.94;100153.50;1709700;82;21421;-68
2021/12/11 11:47:15;;;;;;;32.98;23.57;;;;;;;6.61;84.94;100156.39;1721344;81;21085;-67